Lower Rotterdam, New York
Current Conditions -  °F | °C
As of 12:51 PM on Saturday 22 Nov 2014 (Local Time) from KALB Reporting Station
Scattered Clouds Scattered Clouds  
Wind Chill: 25°   Ceiling: Unl
Heat Index: 35°   Visibility: 10mi
Dew Point: 12°   Wind: 16mph
Humidity: 39%   Direction: 170°S
Pressure: 30.21"   Gusts: 23mph
Location:  42.8133°N, 74.0348°W
Report Text: KALB 221751Z 17014G20KT 10SM SCT065 SCT260 02/M11 A3021 RMK AO2 SLP234 T00171111 10017 21061 58046
Loading
Personal Weather Stations






























Interactive Weather Map New forecast layout! Learn more

10-Day Weather Forecast

Advertisements
Track Severe Weather on mobile